Farm — LBHF — position and weather

sailwx.info

Track history (hours):
 
Tides and Currents Weather Stations Pressure Air Temp Water Temp Dewpoint Dewpoint Depression Visibility Wind Speed Wind Dir Waves Ship Positions

Farm

Last reported at 2015-Jun-15 18:30 UTC. Time now 2015-Jul-08 00:04 UTC.
Position N 69°44' E 019°04'.
Warning: this ship's position is 22 days out of date.

Length 46 m; draft 4 m.

Type: Law enforcement. MMSI: 257069200.

Date/timePositionNaut miles runAvg speedWind from/ knotsBaromVisibWave heightAir tempDewpointWater temp
2015-Jun-15 18:30N 69°44' E 019°04'4 4.7
2015-Jun-15 17:33N 69°40' E 018°59'0 0.0
2015-Jun-15 16:33N 69°40' E 018°59'0 0.0
2015-Jun-15 15:33N 69°40' E 018°59'0 0.0
2015-Jun-15 14:33N 69°40' E 018°59'0 0.0
2015-Jun-15 13:32N 69°40' E 018°59'0 0.0
2015-Jun-15 12:28N 69°40' E 018°59'0 0.0
2015-Jun-15 11:33N 69°40' E 018°59'1 0.6
2015-Jun-15 10:33N 69°39' E 018°59'3 1.6
2015-Jun-15 08:32N 69°36' E 018°55'1 0.9
2015-Jun-15 07:33N 69°37' E 018°55'2 2.4
2015-Jun-15 06:33N 69°39' E 018°59'5 4.9
2015-Jun-15 05:32N 69°44' E 019°03'  
2015-Jun-12 23:09N 69°46' E 019°08'4 6.3
2015-Jun-12 22:33N 69°43' E 019°01'4 4.1
2015-Jun-12 21:31N 69°39' E 018°58'0 0.0
2015-Jun-12 20:31N 69°39' E 018°58'0 0.0
2015-Jun-12 19:31N 69°39' E 018°58'0 0.0
2015-Jun-12 18:31N 69°39' E 018°58'0 0.0
2015-Jun-12 17:31N 69°39' E 018°58'0 0.0
2015-Jun-12 16:31N 69°39' E 018°58'0 0.0
2015-Jun-12 15:28N 69°39' E 018°58'0 0.0
2015-Jun-12 14:31N 69°39' E 018°58'1 0.9
2015-Jun-12 13:33N 69°40' E 018°60'  
2015-Jun-10 08:31N 69°45' E 019°04'7 7.0
2015-Jun-10 07:33N 69°39' E 018°58'0 0.1
2015-Jun-10 06:33N 69°39' E 018°58'3 3.5
2015-Jun-10 05:34N 69°42' E 019°02'  
2015-Jun-05 19:33N 69°45' E 019°05'7 7.1
2015-Jun-05 18:33N 69°39' E 018°58'  
Track history (hours):
 
Tides and Currents Weather Stations Pressure Air Temp Water Temp Dewpoint Dewpoint Depression Visibility Wind Speed Wind Dir Waves Ship Positions

Farm

Last reported at 2015-Jun-15 18:30 UTC. Time now 2015-Jul-08 00:04 UTC.
Position N 69°44' E 019°04'.
Warning: this ship's position is 22 days out of date.

Length 46 m; draft 4 m.

Type: Law enforcement. MMSI: 257069200.

Date/timePositionNaut miles runAvg speedWind from/ knotsBaromVisibWave heightAir tempDewpointWater temp
2015-Jun-15 18:30N 69°44' E 019°04'4 4.7
2015-Jun-15 17:33N 69°40' E 018°59'0 0.0
2015-Jun-15 16:33N 69°40' E 018°59'0 0.0
2015-Jun-15 15:33N 69°40' E 018°59'0 0.0
2015-Jun-15 14:33N 69°40' E 018°59'0 0.0
2015-Jun-15 13:32N 69°40' E 018°59'0 0.0
2015-Jun-15 12:28N 69°40' E 018°59'0 0.0
2015-Jun-15 11:33N 69°40' E 018°59'1 0.6
2015-Jun-15 10:33N 69°39' E 018°59'3 1.6
2015-Jun-15 08:32N 69°36' E 018°55'1 0.9
2015-Jun-15 07:33N 69°37' E 018°55'2 2.4
2015-Jun-15 06:33N 69°39' E 018°59'5 4.9
2015-Jun-15 05:32N 69°44' E 019°03'  
2015-Jun-12 23:09N 69°46' E 019°08'4 6.3
2015-Jun-12 22:33N 69°43' E 019°01'4 4.1
2015-Jun-12 21:31N 69°39' E 018°58'0 0.0
2015-Jun-12 20:31N 69°39' E 018°58'0 0.0
2015-Jun-12 19:31N 69°39' E 018°58'0 0.0
2015-Jun-12 18:31N 69°39' E 018°58'0 0.0
2015-Jun-12 17:31N 69°39' E 018°58'0 0.0
2015-Jun-12 16:31N 69°39' E 018°58'0 0.0
2015-Jun-12 15:28N 69°39' E 018°58'0 0.0
2015-Jun-12 14:31N 69°39' E 018°58'1 0.9
2015-Jun-12 13:33N 69°40' E 018°60'  
2015-Jun-10 08:31N 69°45' E 019°04'7 7.0
2015-Jun-10 07:33N 69°39' E 018°58'0 0.1
2015-Jun-10 06:33N 69°39' E 018°58'3 3.5
2015-Jun-10 05:34N 69°42' E 019°02'  
2015-Jun-05 19:33N 69°45' E 019°05'7 7.1
2015-Jun-05 18:33N 69°39' E 018°58'  

Dump ship's entire track history